Time;durP1;ratioP1;P1;durP2;ratioP2;P2;SDS_P1;SDS_P2;PMS_P1;PMS_P2;Temp;Humidity;BMP_temperature;BMP_pressure;BME280_temperature;BME280_humidity;BME280_pressure;Samples;Min_cycle;Max_cycle;Signal;HPM_P1;HPM_P2
2022/07/30 00:01:37;;;;;;;3.10;2.40;;;19.90;78.00;;;;;;5053579;28;20040;-63
2022/07/30 00:04:03;;;;;;;2.78;2.40;;;19.90;77.90;;;;;;5054443;28;20590;-63
2022/07/30 00:06:28;;;;;;;3.08;2.58;;;19.90;77.90;;;;;;5052436;28;20052;-64
2022/07/30 00:08:54;;;;;;;2.40;2.30;;;19.90;77.90;;;;;;5053598;28;20059;-62
2022/07/30 00:11:20;;;;;;;4.35;2.40;;;19.90;77.90;;;;;;5054956;28;20085;-63
2022/07/30 00:13:46;;;;;;;2.55;2.35;;;19.90;77.90;;;;;;5052403;28;20040;-63
2022/07/30 00:16:12;;;;;;;3.35;2.45;;;19.90;77.90;;;;;;5052036;28;20086;-62
2022/07/30 00:18:38;;;;;;;3.10;2.90;;;19.90;77.90;;;;;;5052529;28;20040;-63
2022/07/30 00:21:03;;;;;;;4.05;2.53;;;19.90;77.90;;;;;;5053833;28;20110;-62
2022/07/30 00:23:29;;;;;;;4.45;2.60;;;19.90;77.80;;;;;;5050445;28;20043;-63
2022/07/30 00:25:54;;;;;;;2.90;2.70;;;19.90;77.80;;;;;;5051985;28;20087;-63
2022/07/30 00:28:20;;;;;;;2.53;2.33;;;19.90;77.80;;;;;;5053929;28;20037;-63
2022/07/30 00:30:45;;;;;;;2.95;2.75;;;19.80;77.70;;;;;;5051847;28;20047;-62
2022/07/30 00:33:11;;;;;;;3.00;2.70;;;19.80;77.80;;;;;;5051872;28;20040;-61
2022/07/30 00:35:38;;;;;;;3.28;2.97;;;19.80;77.70;;;;;;5051258;28;20044;-63
2022/07/30 00:38:04;;;;;;;2.90;2.67;;;19.80;77.60;;;;;;5051939;28;20037;-62
2022/07/30 00:40:29;;;;;;;2.78;2.40;;;19.80;77.50;;;;;;5051224;28;20041;-61
2022/07/30 00:42:55;;;;;;;2.70;2.50;;;19.80;77.50;;;;;;5053428;28;20044;-64
2022/07/30 00:45:21;;;;;;;3.13;2.80;;;19.80;77.50;;;;;;5054028;28;20638;-63
2022/07/30 00:47:46;;;;;;;3.63;2.80;;;19.80;77.60;;;;;;5050340;28;20044;-62
2022/07/30 00:50:13;;;;;;;2.65;2.38;;;19.70;77.70;;;;;;5053730;28;20120;-62
2022/07/30 00:52:40;;;;;;;4.05;2.35;;;19.70;78.00;;;;;;5052469;28;20431;-63
2022/07/30 00:55:09;;;;;;;3.05;2.58;;;19.70;78.00;;;;;;5051230;28;20036;-63
2022/07/30 00:57:34;;;;;;;2.47;2.28;;;19.70;78.20;;;;;;5051951;28;20039;-63
2022/07/30 01:00:00;;;;;;;6.10;2.90;;;19.70;78.20;;;;;;5051141;28;20032;-62
2022/07/30 01:02:26;;;;;;;3.15;2.80;;;19.70;78.20;;;;;;5058507;28;20050;-63
2022/07/30 01:04:51;;;;;;;2.90;2.70;;;19.70;78.10;;;;;;5052925;28;20413;-64
2022/07/30 01:07:17;;;;;;;3.25;2.97;;;19.60;78.00;;;;;;5050955;28;20120;-63
2022/07/30 01:09:43;;;;;;;3.00;2.67;;;19.60;78.00;;;;;;5050411;28;20044;-62
2022/07/30 01:12:09;;;;;;;2.60;2.40;;;19.60;78.00;;;;;;5051100;28;20508;-63
2022/07/30 01:14:36;;;;;;;4.15;2.80;;;19.60;78.00;;;;;;5050612;28;20040;-63
2022/07/30 01:17:03;;;;;;;3.58;2.90;;;19.60;78.00;;;;;;5051319;28;20124;-63
2022/07/30 01:19:51;;;;;;;3.17;2.90;;;19.60;78.10;;;;;;5051581;28;20060;-63
2022/07/30 01:22:28;;;;;;;2.92;2.65;;;19.60;78.40;;;;;;5051541;28;20040;-62
2022/07/30 01:25:23;;;;;;;3.05;2.85;;;19.50;78.20;;;;;;5047930;28;20037;-61
2022/07/30 01:28:01;;;;;;;3.43;3.00;;;19.60;78.50;;;;;;5052565;28;20051;-63
2022/07/30 01:30:29;;;;;;;2.85;2.65;;;19.50;78.70;;;;;;5048665;28;20626;-63
2022/07/30 01:32:56;;;;;;;3.78;2.90;;;19.50;78.50;;;;;;5051655;28;20120;-61
2022/07/30 01:35:24;;;;;;;3.33;2.90;;;19.50;78.50;;;;;;5050685;28;20202;-62
2022/07/30 01:37:55;;;;;;;3.78;3.40;;;19.40;78.70;;;;;;5052665;28;20052;-62
2022/07/30 01:40:22;;;;;;;4.65;3.30;;;19.40;78.90;;;;;;5050669;28;21978;-63
2022/07/30 01:42:53;;;;;;;4.55;2.92;;;19.40;78.90;;;;;;5050722;28;20994;-63
2022/07/30 01:45:22;;;;;;;3.20;2.92;;;19.40;79.10;;;;;;5050473;28;20089;-62
2022/07/30 01:47:51;;;;;;;3.20;3.00;;;19.40;79.10;;;;;;5051965;28;20044;-63
2022/07/30 01:50:18;;;;;;;6.63;3.75;;;19.40;79.10;;;;;;5051178;28;20577;-62
2022/07/30 01:52:46;;;;;;;3.03;2.83;;;19.40;79.20;;;;;;5050948;28;20044;-63
2022/07/30 01:55:15;;;;;;;3.53;3.20;;;19.40;79.40;;;;;;5050210;28;20029;-63
2022/07/30 01:57:42;;;;;;;4.78;3.60;;;19.40;79.60;;;;;;5051324;28;20028;-64
2022/07/30 02:00:09;;;;;;;3.60;3.30;;;19.40;79.60;;;;;;5054045;28;20374;-63
2022/07/30 02:02:37;;;;;;;4.45;4.05;;;19.40;79.70;;;;;;5053918;28;20470;-63
2022/07/30 02:05:04;;;;;;;3.78;3.38;;;19.40;79.80;;;;;;5056058;28;20028;-62
2022/07/30 02:07:53;;;;;;;3.60;3.30;;;19.40;79.80;;;;;;5057491;28;20561;-63
2022/07/30 02:10:27;;;;;;;3.60;3.30;;;19.40;80.10;;;;;;5058402;28;20041;-63
2022/07/30 02:12:55;;;;;;;3.97;3.60;;;19.40;80.10;;;;;;5055329;28;20040;-62
2022/07/30 02:15:46;;;;;;;3.88;3.58;;;19.40;80.00;;;;;;5056901;28;20048;-63
2022/07/30 02:18:26;;;;;;;5.28;3.30;;;19.40;80.60;;;;;;5057309;28;20051;-63
2022/07/30 02:21:03;;;;;;;3.25;2.95;;;19.40;80.20;;;;;;5058052;28;20036;-63
2022/07/30 02:23:32;;;;;;;3.78;3.45;;;19.40;80.50;;;;;;5057730;28;20178;-62
2022/07/30 02:25:59;;;;;;;3.70;3.35;;;19.40;80.10;;;;;;5057225;28;20044;-62
2022/07/30 02:28:26;;;;;;;4.75;3.15;;;19.40;80.10;;;;;;5055343;28;20090;-62
2022/07/30 02:30:54;;;;;;;3.65;3.28;;;19.50;80.30;;;;;;5057850;28;20505;-63
2022/07/30 02:33:27;;;;;;;3.35;3.05;;;19.40;80.30;;;;;;5057631;28;20175;-63
2022/07/30 02:35:53;;;;;;;4.15;3.60;;;19.40;80.50;;;;;;5056928;28;20408;-63
2022/07/30 02:38:20;;;;;;;3.35;3.15;;;19.40;80.20;;;;;;5055534;28;20098;-62
2022/07/30 02:40:46;;;;;;;3.83;3.53;;;19.50;80.20;;;;;;5052706;28;20065;-62
2022/07/30 02:43:15;;;;;;;3.97;3.65;;;19.50;80.20;;;;;;5053241;28;20056;-62
2022/07/30 02:45:42;;;;;;;4.47;3.42;;;19.40;80.30;;;;;;5055167;28;20044;-61
2022/07/30 02:48:09;;;;;;;4.32;3.92;;;19.40;80.20;;;;;;5054890;28;20068;-62
2022/07/30 02:50:36;;;;;;;3.88;3.58;;;19.40;80.30;;;;;;5053664;28;20040;-63
2022/07/30 02:53:05;;;;;;;6.90;3.75;;;19.40;80.30;;;;;;5054486;28;20047;-61
2022/07/30 02:55:34;;;;;;;3.63;3.33;;;19.40;80.40;;;;;;5051757;28;20040;-63
2022/07/30 02:58:01;;;;;;;4.10;3.70;;;19.40;80.30;;;;;;5054272;28;20040;-60
2022/07/30 03:00:28;;;;;;;4.22;3.80;;;19.40;80.40;;;;;;5056069;28;20124;-63
2022/07/30 03:02:55;;;;;;;4.80;3.72;;;19.30;80.40;;;;;;5058687;28;20051;-63
2022/07/30 03:05:22;;;;;;;4.00;3.30;;;19.30;80.50;;;;;;5058350;28;20040;-62
2022/07/30 03:07:48;;;;;;;3.70;3.40;;;19.30;80.50;;;;;;5058188;28;20451;-63
2022/07/30 03:10:15;;;;;;;3.72;3.35;;;19.30;80.40;;;;;;5056908;28;20447;-63
2022/07/30 03:12:43;;;;;;;3.78;3.47;;;19.30;80.50;;;;;;5056453;28;20036;-63
2022/07/30 03:15:09;;;;;;;3.95;3.47;;;19.30;80.50;;;;;;5057385;28;20412;-61
2022/07/30 03:17:41;;;;;;;3.53;3.22;;;19.30;80.50;;;;;;5054982;28;20171;-62
2022/07/30 03:20:09;;;;;;;4.88;3.20;;;19.40;80.50;;;;;;5052746;28;20036;-62
2022/07/30 03:22:40;;;;;;;3.60;3.40;;;19.40;80.50;;;;;;5054284;28;20124;-62
2022/07/30 03:25:08;;;;;;;3.35;3.03;;;19.30;80.50;;;;;;5053192;28;20096;-63
2022/07/30 03:27:36;;;;;;;4.65;3.35;;;19.40;80.30;;;;;;5052227;28;20044;-63
2022/07/30 03:30:04;;;;;;;3.85;3.55;;;19.40;80.20;;;;;;5050819;28;20134;-61
2022/07/30 03:32:31;;;;;;;4.60;3.45;;;19.40;80.20;;;;;;5057021;28;20086;-62
2022/07/30 03:34:58;;;;;;;3.50;3.28;;;19.40;80.10;;;;;;5051217;28;20038;-64
2022/07/30 03:37:26;;;;;;;3.67;3.38;;;19.40;80.10;;;;;;5053243;28;20059;-64
2022/07/30 03:39:52;;;;;;;3.58;3.30;;;19.40;80.00;;;;;;5054462;28;20211;-61
2022/07/30 03:42:19;;;;;;;5.03;3.60;;;19.40;80.00;;;;;;5054366;28;20032;-63
2022/07/30 03:44:46;;;;;;;3.35;3.05;;;19.40;80.00;;;;;;5050629;28;20559;-62
2022/07/30 03:47:13;;;;;;;5.28;3.42;;;19.40;79.90;;;;;;5051678;28;20066;-63
2022/07/30 03:49:39;;;;;;;4.82;3.58;;;19.40;79.80;;;;;;5053351;28;20044;-63
2022/07/30 03:52:05;;;;;;;4.03;3.25;;;19.40;79.60;;;;;;5054258;28;20079;-61
2022/07/30 03:54:32;;;;;;;6.30;3.42;;;19.50;79.60;;;;;;5051506;28;20033;-62
2022/07/30 03:56:59;;;;;;;3.88;3.33;;;19.40;79.60;;;;;;5054855;28;20112;-63
2022/07/30 03:59:26;;;;;;;3.92;3.28;;;19.50;79.70;;;;;;5052292;28;20037;-62
2022/07/30 04:01:51;;;;;;;3.58;3.28;;;19.50;79.60;;;;;;5053023;28;20055;-63
2022/07/30 04:04:17;;;;;;;3.70;3.30;;;19.50;79.60;;;;;;5051736;28;20558;-63
2022/07/30 04:06:43;;;;;;;3.50;3.20;;;19.50;79.60;;;;;;5051901;28;20036;-63
2022/07/30 04:09:12;;;;;;;4.88;3.28;;;19.60;79.50;;;;;;5051326;28;20117;-62
2022/07/30 04:11:38;;;;;;;5.00;3.00;;;19.50;79.60;;;;;;5051686;28;20028;-61
2022/07/30 04:14:04;;;;;;;3.30;3.00;;;19.50;79.50;;;;;;5049973;28;20068;-62
2022/07/30 04:16:43;;;;;;;3.55;3.25;;;19.60;79.40;;;;;;5053338;28;20076;-62
2022/07/30 04:19:15;;;;;;;4.03;3.30;;;19.60;79.50;;;;;;5052856;28;20049;-62
2022/07/30 04:21:41;;;;;;;4.32;3.20;;;19.60;79.40;;;;;;5050396;28;20090;-63
2022/07/30 04:24:09;;;;;;;4.30;3.33;;;19.60;79.30;;;;;;5049709;28;20032;-63
2022/07/30 04:26:36;;;;;;;3.22;2.92;;;19.60;79.30;;;;;;5052192;28;20044;-62
2022/07/30 04:29:05;;;;;;;3.05;2.85;;;19.60;79.10;;;;;;5052901;28;21777;-63
2022/07/30 04:31:37;;;;;;;3.20;2.90;;;19.60;79.10;;;;;;5052986;28;20044;-63
2022/07/30 04:34:04;;;;;;;3.38;3.08;;;19.60;79.00;;;;;;5053207;28;20523;-61
2022/07/30 04:36:31;;;;;;;3.63;3.08;;;19.70;79.10;;;;;;5047579;28;20493;-63
2022/07/30 04:38:57;;;;;;;5.70;3.10;;;19.70;79.10;;;;;;5052290;28;20129;-63
2022/07/30 04:41:23;;;;;;;4.25;3.05;;;19.70;79.10;;;;;;5052645;28;20527;-63
2022/07/30 04:43:49;;;;;;;3.33;2.90;;;19.60;78.90;;;;;;5053412;28;20075;-63
2022/07/30 04:46:15;;;;;;;3.25;2.92;;;19.70;78.80;;;;;;5049066;28;20036;-63
2022/07/30 04:48:41;;;;;;;5.97;2.85;;;19.70;78.70;;;;;;5052504;28;20318;-63
2022/07/30 04:51:15;;;;;;;6.40;3.20;;;19.70;78.70;;;;;;5052526;28;20101;-63
2022/07/30 04:53:42;;;;;;;4.32;2.90;;;19.70;78.70;;;;;;5051831;28;20045;-63
2022/07/30 04:56:09;;;;;;;4.45;3.28;;;19.70;78.60;;;;;;5051451;28;20040;-62
2022/07/30 04:58:36;;;;;;;3.45;3.15;;;19.70;78.60;;;;;;5049665;28;20029;-62
2022/07/30 05:01:03;;;;;;;3.30;3.10;;;19.70;78.60;;;;;;5053110;28;20029;-63
2022/07/30 05:03:30;;;;;;;4.15;3.25;;;19.70;78.60;;;;;;5052765;28;20047;-62
2022/07/30 05:05:56;;;;;;;7.30;3.25;;;19.70;78.60;;;;;;5051083;28;20075;-63
2022/07/30 05:08:26;;;;;;;3.28;2.97;;;19.70;78.40;;;;;;5053262;28;20055;-63
2022/07/30 05:10:52;;;;;;;4.38;3.50;;;19.70;78.50;;;;;;5049891;28;20036;-63
2022/07/30 05:13:18;;;;;;;5.50;3.75;;;19.70;78.50;;;;;;5050616;28;20048;-63
2022/07/30 05:15:43;;;;;;;7.28;3.60;;;19.70;78.40;;;;;;5050438;28;20036;-62
2022/07/30 05:18:10;;;;;;;3.58;3.33;;;19.70;78.50;;;;;;5051923;28;20413;-62
2022/07/30 05:20:36;;;;;;;5.40;3.63;;;19.70;78.50;;;;;;5051818;28;20037;-61
2022/07/30 05:23:02;;;;;;;3.92;3.58;;;19.70;78.50;;;;;;5051242;28;20555;-62
2022/07/30 05:25:28;;;;;;;4.13;3.40;;;19.70;78.60;;;;;;5051772;28;20036;-62
2022/07/30 05:27:55;;;;;;;4.57;3.30;;;19.70;78.50;;;;;;5049672;28;20079;-63
2022/07/30 05:30:21;;;;;;;4.15;3.58;;;19.70;78.50;;;;;;5050559;28;20404;-63
2022/07/30 05:32:47;;;;;;;3.80;3.40;;;19.70;78.60;;;;;;5052508;28;20041;-62
2022/07/30 05:35:12;;;;;;;3.50;3.20;;;19.80;78.60;;;;;;5052983;28;20036;-63
2022/07/30 05:37:38;;;;;;;4.00;3.13;;;19.80;78.60;;;;;;5053222;28;20033;-61
2022/07/30 05:40:04;;;;;;;5.00;3.33;;;19.80;78.60;;;;;;5055538;28;20487;-61
2022/07/30 05:42:30;;;;;;;4.25;3.42;;;19.80;78.40;;;;;;5054112;28;20259;-63
2022/07/30 05:44:56;;;;;;;5.00;3.70;;;19.90;78.40;;;;;;5054817;28;20040;-65
2022/07/30 05:47:21;;;;;;;3.97;3.67;;;19.90;78.30;;;;;;5055090;28;20039;-63
2022/07/30 05:49:47;;;;;;;5.03;3.65;;;19.90;78.20;;;;;;5056030;28;20036;-63
2022/07/30 05:52:13;;;;;;;5.50;4.00;;;19.90;78.00;;;;;;5058078;28;20037;-63
2022/07/30 05:54:38;;;;;;;4.70;3.90;;;20.00;78.00;;;;;;5054758;28;20036;-62
2022/07/30 05:57:04;;;;;;;4.57;3.90;;;20.00;79.00;;;;;;5054845;28;20767;-62
2022/07/30 05:59:29;;;;;;;6.75;4.55;;;20.10;77.80;;;;;;5054155;28;20041;-62
2022/07/30 06:01:55;;;;;;;5.20;4.70;;;20.10;77.30;;;;;;5054805;28;20039;-62
2022/07/30 06:04:21;;;;;;;4.38;3.97;;;20.10;77.10;;;;;;5054333;28;20033;-62
2022/07/30 06:06:47;;;;;;;4.97;4.50;;;20.20;77.20;;;;;;5053960;28;20565;-63
2022/07/30 06:09:13;;;;;;;5.90;4.55;;;20.20;76.70;;;;;;5053868;28;20032;-63
2022/07/30 06:11:38;;;;;;;7.47;4.45;;;20.30;76.20;;;;;;5055164;28;20507;-62
2022/07/30 06:14:04;;;;;;;5.40;4.90;;;20.30;75.60;;;;;;5053764;28;20097;-60
2022/07/30 06:16:30;;;;;;;5.28;4.82;;;20.40;75.30;;;;;;5055577;28;20519;-62
2022/07/30 06:18:55;;;;;;;5.22;4.72;;;20.40;74.40;;;;;;5055055;28;20055;-62
2022/07/30 06:21:21;;;;;;;5.68;4.68;;;20.40;73.90;;;;;;5055751;28;20477;-61
2022/07/30 06:23:47;;;;;;;6.47;4.80;;;20.50;73.60;;;;;;5054401;28;20041;-62
2022/07/30 06:26:13;;;;;;;5.75;5.05;;;20.50;73.20;;;;;;5055860;28;20037;-62
2022/07/30 06:28:39;;;;;;;9.05;4.80;;;20.60;72.80;;;;;;5055768;28;20041;-62
2022/07/30 06:31:05;;;;;;;4.90;4.50;;;20.50;72.80;;;;;;5053081;28;20397;-63
2022/07/30 06:33:31;;;;;;;7.07;4.85;;;20.60;73.10;;;;;;5052891;28;20500;-61
2022/07/30 06:35:57;;;;;;;5.43;4.55;;;20.60;72.80;;;;;;5042786;28;20052;-62
2022/07/30 06:38:22;;;;;;;6.45;4.88;;;20.60;72.40;;;;;;5048248;28;20071;-63
2022/07/30 06:40:48;;;;;;;4.90;4.20;;;20.70;72.50;;;;;;5039345;28;20044;-62
2022/07/30 06:43:14;;;;;;;6.63;4.78;;;20.70;72.60;;;;;;5048298;28;20049;-61
2022/07/30 06:45:39;;;;;;;6.05;4.38;;;20.70;72.60;;;;;;5046539;28;20045;-61
2022/07/30 06:48:05;;;;;;;5.50;4.45;;;20.80;72.10;;;;;;5045611;28;20045;-61
2022/07/30 06:50:31;;;;;;;6.40;4.72;;;20.90;71.60;;;;;;5047374;28;20048;-62
2022/07/30 06:52:56;;;;;;;6.13;4.32;;;20.90;71.50;;;;;;5051747;28;20134;-62
2022/07/30 06:55:22;;;;;;;4.75;4.28;;;20.90;71.20;;;;;;5046587;28;20036;-62
2022/07/30 06:57:48;;;;;;;6.82;4.75;;;21.00;71.00;;;;;;5048519;28;20052;-62
2022/07/30 07:00:14;;;;;;;5.57;4.43;;;21.00;69.90;;;;;;5045703;28;20032;-62
2022/07/30 07:02:41;;;;;;;6.20;3.92;;;21.00;69.70;;;;;;5044692;28;20424;-63
2022/07/30 07:05:07;;;;;;;6.63;4.20;;;21.10;69.40;;;;;;5047846;28;20095;-63
2022/07/30 07:07:36;;;;;;;5.10;4.43;;;21.10;68.80;;;;;;5051843;28;20218;-62
2022/07/30 07:10:01;;;;;;;4.80;4.30;;;21.20;68.00;;;;;;5052672;28;20028;-62
2022/07/30 07:12:27;;;;;;;6.45;3.90;;;21.20;68.10;;;;;;5051394;28;20541;-62
2022/07/30 07:14:53;;;;;;;6.30;4.72;;;21.20;68.60;;;;;;5050120;28;20056;-61
2022/07/30 07:17:18;;;;;;;6.93;4.68;;;21.30;68.10;;;;;;5046637;28;21608;-62
2022/07/30 07:19:44;;;;;;;6.32;4.45;;;21.30;68.00;;;;;;5050782;28;20040;-61
2022/07/30 07:22:10;;;;;;;6.78;3.75;;;21.40;68.00;;;;;;5051043;28;20036;-61
2022/07/30 07:24:36;;;;;;;5.10;3.90;;;21.40;68.10;;;;;;5054553;28;20021;-61
2022/07/30 07:27:01;;;;;;;8.20;3.65;;;21.50;67.80;;;;;;5049549;28;20028;-63
2022/07/30 07:29:27;;;;;;;5.22;4.30;;;21.60;68.00;;;;;;5048554;28;20616;-60
2022/07/30 07:31:53;;;;;;;5.35;4.00;;;21.60;67.40;;;;;;5047500;28;20040;-62
2022/07/30 07:34:18;;;;;;;7.72;4.65;;;21.70;67.10;;;;;;5048507;28;20037;-64
2022/07/30 07:36:44;;;;;;;4.47;4.00;;;21.70;65.90;;;;;;5054718;28;20058;-62
2022/07/30 07:39:09;;;;;;;6.03;3.85;;;21.80;66.30;;;;;;5052777;28;20037;-61
2022/07/30 07:41:36;;;;;;;7.20;4.00;;;21.80;66.20;;;;;;5052590;28;20571;-61
2022/07/30 07:44:03;;;;;;;6.28;3.90;;;21.90;65.80;;;;;;5053241;28;20408;-59
2022/07/30 07:46:29;;;;;;;4.90;3.83;;;21.90;65.70;;;;;;5052511;28;20033;-61
2022/07/30 07:48:54;;;;;;;6.95;4.22;;;22.00;65.70;;;;;;5056280;28;20048;-60
2022/07/30 07:51:20;;;;;;;4.35;3.78;;;22.00;65.00;;;;;;5052582;28;20063;-61
2022/07/30 07:53:46;;;;;;;7.18;4.10;;;22.10;65.50;;;;;;5053570;28;20499;-62
2022/07/30 07:56:12;;;;;;;5.45;3.90;;;22.10;64.30;;;;;;5052030;28;20037;-63
2022/07/30 07:58:38;;;;;;;4.50;4.10;;;22.20;64.40;;;;;;5051475;28;20032;-62
2022/07/30 08:01:04;;;;;;;8.10;4.25;;;22.20;63.50;;;;;;5055028;28;20045;-60
2022/07/30 08:03:29;;;;;;;6.28;4.18;;;22.30;63.50;;;;;;5048348;28;20496;-62
2022/07/30 08:05:55;;;;;;;4.30;3.90;;;22.40;63.90;;;;;;5052250;28;20450;-62
2022/07/30 08:08:21;;;;;;;5.78;3.80;;;22.40;63.90;;;;;;5056093;28;20048;-62
2022/07/30 08:10:46;;;;;;;4.68;3.47;;;22.50;64.00;;;;;;5046431;28;20041;-62
2022/07/30 08:13:13;;;;;;;4.15;3.75;;;22.60;63.50;;;;;;5050036;28;20071;-62
2022/07/30 08:15:39;;;;;;;4.55;4.13;;;22.60;63.40;;;;;;5050115;28;20032;-63
2022/07/30 08:18:11;;;;;;;5.13;3.95;;;22.70;63.80;;;;;;5035494;28;20484;-62
2022/07/30 08:20:38;;;;;;;4.25;3.80;;;22.70;63.50;;;;;;5023639;28;20076;-62
2022/07/30 08:23:04;;;;;;;4.97;3.70;;;22.80;62.20;;;;;;5027932;28;20046;-63
2022/07/30 08:25:30;;;;;;;4.80;4.18;;;22.90;61.80;;;;;;5021066;28;20417;-62
2022/07/30 08:27:56;;;;;;;4.78;3.53;;;22.90;61.50;;;;;;5021703;28;20034;-62
2022/07/30 08:30:21;;;;;;;5.28;3.25;;;22.90;60.00;;;;;;5023513;28;20049;-62
2022/07/30 08:32:47;;;;;;;3.53;2.65;;;23.00;60.30;;;;;;5025249;28;20536;-61
2022/07/30 08:35:12;;;;;;;4.00;3.08;;;23.00;59.70;;;;;;5024063;28;20148;-62
2022/07/30 08:37:39;;;;;;;4.53;2.63;;;23.00;58.10;;;;;;5029460;28;20033;-62
2022/07/30 08:40:06;;;;;;;5.47;2.80;;;23.10;58.20;;;;;;5028610;28;20087;-62
2022/07/30 08:42:34;;;;;;;3.88;2.85;;;23.10;58.10;;;;;;5026324;28;20076;-63
2022/07/30 08:45:00;;;;;;;4.18;2.65;;;23.20;56.90;;;;;;5027388;28;20049;-62
2022/07/30 08:47:33;;;;;;;4.05;2.75;;;23.30;56.10;;;;;;5028670;28;20421;-60
2022/07/30 08:50:05;;;;;;;3.42;2.60;;;23.40;55.70;;;;;;5029892;28;20040;-62
2022/07/30 08:52:32;;;;;;;3.58;2.50;;;23.40;56.30;;;;;;5028384;28;20042;-62
2022/07/30 08:54:59;;;;;;;3.45;2.50;;;23.50;55.60;;;;;;5026227;28;20609;-60
2022/07/30 08:57:29;;;;;;;2.67;2.25;;;23.50;56.00;;;;;;5026631;28;20138;-61
2022/07/30 08:59:56;;;;;;;4.80;3.15;;;23.60;55.70;;;;;;5028261;28;20029;-61
2022/07/30 09:02:22;;;;;;;4.18;2.50;;;23.70;55.80;;;;;;5027236;28;20029;-63
2022/07/30 09:04:47;;;;;;;2.30;2.10;;;23.80;55.50;;;;;;5022340;28;20489;-62
2022/07/30 09:07:13;;;;;;;2.63;2.42;;;23.80;54.40;;;;;;5026872;28;20045;-62
2022/07/30 09:09:39;;;;;;;2.83;2.10;;;23.90;54.00;;;;;;5027549;28;20076;-61
2022/07/30 09:12:30;;;;;;;3.25;2.30;;;24.00;54.10;;;;;;5020842;28;20531;-62
2022/07/30 09:15:14;;;;;;;2.75;2.30;;;24.10;52.10;;;;;;5025602;28;20049;-62
2022/07/30 09:18:00;;;;;;;2.17;1.83;;;24.20;51.90;;;;;;5025855;28;20588;-62
2022/07/30 09:20:35;;;;;;;2.47;1.90;;;24.30;50.40;;;;;;5025512;28;20048;-62
2022/07/30 09:23:04;;;;;;;2.38;1.92;;;24.40;50.00;;;;;;5027455;28;20132;-62
2022/07/30 09:25:32;;;;;;;2.22;1.83;;;24.50;52.00;;;;;;5025958;28;20534;-62
2022/07/30 09:27:59;;;;;;;1.67;1.58;;;24.50;51.70;;;;;;5022505;28;20049;-63
2022/07/30 09:30:25;;;;;;;3.13;1.70;;;24.60;51.60;;;;;;5009811;28;20150;-61
2022/07/30 09:32:52;;;;;;;1.67;1.58;;;24.70;50.90;;;;;;5011910;28;20084;-63
2022/07/30 09:35:18;;;;;;;2.03;1.55;;;24.80;51.00;;;;;;5011118;28;20041;-63
2022/07/30 09:37:45;;;;;;;2.65;1.42;;;24.80;50.10;;;;;;5014852;28;20041;-63
2022/07/30 09:40:16;;;;;;;1.40;1.30;;;24.90;50.20;;;;;;5011451;28;20445;-62
2022/07/30 09:42:42;;;;;;;1.48;1.38;;;25.00;49.50;;;;;;5028566;28;20493;-62
2022/07/30 09:45:13;;;;;;;1.73;1.30;;;25.00;49.20;;;;;;5010244;28;20042;-63
2022/07/30 09:47:47;;;;;;;2.13;1.50;;;25.10;48.70;;;;;;5011438;28;20064;-63
2022/07/30 09:50:14;;;;;;;1.73;1.30;;;25.10;48.00;;;;;;5007910;28;20236;-61
2022/07/30 09:52:45;;;;;;;3.10;1.60;;;25.10;48.70;;;;;;5015698;28;20045;-62
2022/07/30 09:55:12;;;;;;;2.03;1.30;;;25.10;47.10;;;;;;5006439;28;20044;-62
2022/07/30 09:57:58;;;;;;;1.40;1.30;;;25.20;48.00;;;;;;5010267;28;20116;-62
2022/07/30 10:00:25;;;;;;;1.10;1.00;;;25.20;46.30;;;;;;5006307;28;20073;-62
2022/07/30 10:02:52;;;;;;;1.38;1.20;;;25.30;48.30;;;;;;5009862;28;20038;-62
2022/07/30 10:05:20;;;;;;;1.50;1.10;;;25.40;47.20;;;;;;5009830;28;20050;-64
2022/07/30 10:07:59;;;;;;;2.88;1.50;;;25.40;47.20;;;;;;5011440;28;20042;-63
2022/07/30 10:10:27;;;;;;;3.40;1.48;;;25.40;46.00;;;;;;5008854;28;20030;-62
2022/07/30 10:13:01;;;;;;;2.05;1.42;;;25.40;46.60;;;;;;5007216;28;20037;-62
2022/07/30 10:15:32;;;;;;;1.50;1.30;;;25.40;46.70;;;;;;5014374;28;20502;-62
2022/07/30 10:17:59;;;;;;;1.60;1.00;;;25.50;46.70;;;;;;5010874;28;20068;-62
2022/07/30 10:20:26;;;;;;;1.35;1.25;;;25.50;46.90;;;;;;5010238;28;20467;-62
2022/07/30 10:22:52;;;;;;;2.55;1.50;;;25.50;46.90;;;;;;5008096;28;20037;-63
2022/07/30 10:25:19;;;;;;;2.45;1.33;;;25.50;46.50;;;;;;5007659;28;20038;-63
2022/07/30 10:27:45;;;;;;;1.63;1.40;;;25.50;46.90;;;;;;5011252;28;20041;-63
2022/07/30 10:30:11;;;;;;;1.92;1.50;;;25.50;47.40;;;;;;5007796;28;20276;-63
2022/07/30 10:32:37;;;;;;;3.30;1.42;;;25.50;46.70;;;;;;5007667;28;20124;-62
2022/07/30 10:35:04;;;;;;;3.72;1.38;;;25.50;46.90;;;;;;5011302;28;20126;-62
2022/07/30 10:37:32;;;;;;;2.55;1.30;;;25.60;46.80;;;;;;5010533;28;20048;-63
2022/07/30 10:40:32;;;;;;;1.55;1.30;;;25.60;47.70;;;;;;5008492;28;20528;-62
2022/07/30 10:43:04;;;;;;;1.42;1.30;;;25.60;47.00;;;;;;5003435;28;20050;-62
2022/07/30 10:45:48;;;;;;;1.73;1.33;;;25.70;47.80;;;;;;5008011;28;20037;-62
2022/07/30 10:48:17;;;;;;;1.20;1.10;;;25.90;45.40;;;;;;5009514;28;20048;-62
2022/07/30 10:50:54;;;;;;;5.25;1.58;;;25.80;47.20;;;;;;5009795;28;20038;-63
2022/07/30 10:53:41;;;;;;;2.80;1.23;;;25.90;45.70;;;;;;5006941;28;20502;-62
2022/07/30 10:56:09;;;;;;;2.30;1.27;;;25.90;45.50;;;;;;5008511;28;20524;-62
2022/07/30 10:59:05;;;;;;;2.05;1.52;;;25.90;46.10;;;;;;5008947;28;20185;-63
2022/07/30 11:01:46;;;;;;;2.08;1.30;;;26.00;44.90;;;;;;5006933;28;20033;-62
2022/07/30 11:04:24;;;;;;;1.42;1.17;;;26.00;46.10;;;;;;5005095;28;20507;-63
2022/07/30 11:06:51;;;;;;;1.50;1.40;;;26.00;46.60;;;;;;5004083;28;20045;-63
2022/07/30 11:09:34;;;;;;;1.65;1.20;;;26.10;46.80;;;;;;5011687;28;20518;-63
2022/07/30 11:11:59;;;;;;;1.77;1.10;;;26.10;44.10;;;;;;5002727;28;20034;-63
2022/07/30 11:14:47;;;;;;;2.20;1.30;;;26.10;46.30;;;;;;5008205;28;20037;-62
2022/07/30 11:17:16;;;;;;;3.50;1.20;;;26.10;45.40;;;;;;5011733;28;20087;-63
2022/07/30 11:20:05;;;;;;;2.15;1.20;;;26.10;47.20;;;;;;5006933;28;20523;-62
2022/07/30 11:22:39;;;;;;;1.63;1.40;;;26.20;45.70;;;;;;5006764;28;20053;-62
2022/07/30 11:25:05;;;;;;;1.00;1.00;;;26.20;45.80;;;;;;5002740;28;20034;-63
2022/07/30 11:27:38;;;;;;;2.80;1.63;;;26.20;46.30;;;;;;5008864;28;20063;-62
2022/07/30 11:30:14;;;;;;;1.20;1.10;;;26.30;46.10;;;;;;5003816;28;20674;-62
2022/07/30 11:32:50;;;;;;;2.35;1.38;;;26.40;46.80;;;;;;5009098;28;20052;-62
2022/07/30 11:35:24;;;;;;;1.75;0.98;;;26.40;46.10;;;;;;5012261;28;20083;-63
2022/07/30 11:38:06;;;;;;;0.97;0.93;;;26.50;46.40;;;;;;5011624;28;20037;-63
2022/07/30 11:40:39;;;;;;;1.48;1.20;;;26.50;46.40;;;;;;5011392;28;20308;-63
2022/07/30 11:43:24;;;;;;;1.00;0.95;;;26.50;46.40;;;;;;5008050;28;20525;-63
2022/07/30 11:46:06;;;;;;;3.03;1.35;;;26.60;46.50;;;;;;5008128;28;20060;-63
2022/07/30 11:48:33;;;;;;;2.75;1.15;;;26.60;45.10;;;;;;5009376;28;20397;-63
2022/07/30 11:50:58;;;;;;;2.25;1.27;;;26.60;46.20;;;;;;5010618;28;20137;-62
2022/07/30 11:53:24;;;;;;;2.40;1.00;;;26.60;46.20;;;;;;5010551;28;20117;-62
2022/07/30 11:55:53;;;;;;;1.25;1.10;;;26.60;45.50;;;;;;5012071;28;20041;-63
2022/07/30 11:58:27;;;;;;;1.73;0.90;;;26.60;45.40;;;;;;5011894;28;20121;-63
2022/07/30 12:01:03;;;;;;;1.15;0.98;;;26.60;45.20;;;;;;5011424;28;20140;-62
2022/07/30 12:03:30;;;;;;;1.10;1.00;;;26.70;46.20;;;;;;5008908;28;20116;-63
2022/07/30 12:06:06;;;;;;;1.30;1.20;;;26.70;45.60;;;;;;5011255;28;20041;-63
2022/07/30 12:08:46;;;;;;;1.75;1.10;;;26.80;45.50;;;;;;5009744;28;20516;-63
2022/07/30 12:11:12;;;;;;;2.83;1.15;;;26.80;45.10;;;;;;5006399;28;20113;-63
2022/07/30 12:13:42;;;;;;;1.17;0.90;;;26.90;45.20;;;;;;5009545;28;20493;-63
2022/07/30 12:16:09;;;;;;;2.50;1.00;;;26.90;44.80;;;;;;5008696;28;20034;-62
2022/07/30 12:18:35;;;;;;;1.98;1.00;;;27.00;44.50;;;;;;5006851;28;20053;-63
2022/07/30 12:21:05;;;;;;;1.48;1.00;;;27.00;43.90;;;;;;5010421;28;20069;-62
2022/07/30 12:23:31;;;;;;;3.15;0.90;;;27.10;44.40;;;;;;5009731;28;20053;-63
2022/07/30 12:25:57;;;;;;;1.08;0.90;;;27.10;44.00;;;;;;5012459;28;20444;-61
2022/07/30 12:28:25;;;;;;;1.83;1.10;;;27.20;43.90;;;;;;5008625;28;20041;-63
2022/07/30 12:30:52;;;;;;;2.00;0.98;;;27.20;44.20;;;;;;5009055;28;20026;-60
2022/07/30 12:33:19;;;;;;;2.65;1.00;;;27.20;43.50;;;;;;5009045;28;20038;-61
2022/07/30 12:35:49;;;;;;;0.90;0.90;;;27.10;44.00;;;;;;5009401;28;20109;-63
2022/07/30 12:38:17;;;;;;;2.20;1.00;;;27.10;43.20;;;;;;5010431;28;20053;-63
2022/07/30 12:41:03;;;;;;;1.10;1.00;;;27.10;43.20;;;;;;5011953;28;20033;-63
2022/07/30 12:43:42;;;;;;;0.80;0.80;;;27.10;42.50;;;;;;5010819;28;20041;-63
2022/07/30 12:46:08;;;;;;;1.00;0.90;;;27.10;42.30;;;;;;5000951;28;20029;-62
2022/07/30 12:48:34;;;;;;;1.27;1.00;;;27.10;43.00;;;;;;5010715;28;20061;-63
2022/07/30 12:51:07;;;;;;;1.63;0.88;;;27.10;43.10;;;;;;5011294;28;20481;-63
2022/07/30 12:53:32;;;;;;;1.10;0.80;;;27.10;42.10;;;;;;5011676;28;20065;-63
2022/07/30 12:56:25;;;;;;;1.13;0.80;;;27.10;43.00;;;;;;5012125;28;20070;-63